< < Back
Terminal Aerodrome Forecast


Current Version              Previous Versions:   1  2  3  4  5  6  7  8  9  

Terminal Aerodrome Forecast

026
FTUS42 KMLB 291900 AAA
TAFDAB
TAF AMD
KDAB 291920Z 2919/3018 25008KT P6SM VCTS SCT035CB SCT080 BKN250
     FM292100 25009KT P6SM SCT035 BKN120 BKN250
     FM300000 24004KT P6SM FEW040 SCT250
     FM301400 01004KT P6SM SCT025=



Latest METAR

987
SAUS80 KWBC 301100 RRA
MTRDAB
METAR KDAB 301053Z 24004KT 9SM FEW055 22/21 A2995 RMK AO2 SLP140
T02220206


USA.gov is the U.S. government's official web portal to all federal, state and local government web resources and services.